Time,TemperatureF,DewpointF,PressureIn,WindDirection,WindDirectionDegrees,WindSpeedMPH,WindSpeedGustMPH,Humidity,HourlyPrecipIn,Conditions,Clouds,dailyrainin,SoftwareType,DateUTC
2013-02-27 00:00:00,38.4,38.4,29.77,SSW,200,11.3,28.3,100,0.01,,---,0.00,VWS V14.01,2013-02-27 05:00:00,
2013-02-27 00:01:00,42.6,37.8,29.57,NNW,330,0.0,0.0,83,0.01,,---,0.00,VWS V14.01,2013-02-27 05:01:00,
2013-02-27 00:05:00,38.4,38.4,29.76,East,93,24.9,26.2,100,0.01,,---,0.00,VWS V14.01,2013-02-27 05:05:00,
2013-02-27 00:10:00,38.7,38.7,29.75,North,359,0.4,0.4,100,0.01,,---,0.00,VWS V14.01,2013-02-27 05:10:00,
2013-02-27 00:15:00,38.5,38.5,29.76,ESE,117,16.6,18.1,100,0.01,,---,0.00,VWS V14.01,2013-02-27 05:15:00,
2013-02-27 00:20:00,38.7,38.7,29.77,North,359,13.6,13.6,100,0.01,,---,0.00,VWS V14.01,2013-02-27 05:20:00,
2013-02-27 00:25:00,38.6,38.6,29.77,SE,129,10.5,12.6,100,0.01,,---,0.00,VWS V14.01,2013-02-27 05:25:00,
2013-02-27 00:30:00,38.9,38.9,29.77,SE,129,9.0,9.6,100,0.02,,---,0.01,VWS V14.01,2013-02-27 05:30:00,
2013-02-27 00:35:00,39.1,39.1,29.76,ENE,69,16.3,16.3,100,0.02,,---,0.01,VWS V14.01,2013-02-27 05:35:00,
2013-02-27 00:40:00,39.5,39.5,29.76,ESE,107,10.6,16.5,100,0.02,,---,0.01,VWS V14.01,2013-02-27 05:40:00,
2013-02-27 00:45:00,39.0,39.0,29.75,East,84,5.0,11.7,100,0.01,,---,0.01,VWS V14.01,2013-02-27 05:45:00,
2013-02-27 00:50:00,39.3,39.3,29.74,East,100,17.8,29.0,100,0.01,,---,0.01,VWS V14.01,2013-02-27 05:50:00,
2013-02-27 00:55:00,39.5,39.5,29.75,SE,143,2.4,5.2,100,0.01,,---,0.01,VWS V14.01,2013-02-27 05:55:00,
2013-02-27 01:00:00,39.4,39.4,29.74,North,359,2.5,3.2,100,0.01,,---,0.01,VWS V14.01,2013-02-27 06:00:00,
2013-02-27 01:05:00,39.7,39.7,29.74,East,96,3.6,4.8,100,0.01,,---,0.01,VWS V14.01,2013-02-27 06:05:00,
2013-02-27 01:10:00,39.9,39.9,29.74,East,87,11.9,17.3,100,0.01,,---,0.01,VWS V14.01,2013-02-27 06:10:00,
2013-02-27 01:15:00,39.4,39.4,29.73,North,359,14.6,14.6,100,0.01,,---,0.01,VWS V14.01,2013-02-27 06:15:00,
2013-02-27 01:20:00,39.9,39.9,29.74,WNW,298,1.3,7.5,100,0.01,,---,0.01,VWS V14.01,2013-02-27 06:20:00,
2013-02-27 01:25:00,39.7,39.7,29.74,NE,46,0.0,0.0,100,0.02,,---,0.02,VWS V14.01,2013-02-27 06:25:00,
2013-02-27 01:29:00,40.0,40.0,29.73,North,359,11.7,11.7,100,0.01,,---,0.02,VWS V14.01,2013-02-27 06:29:00,
2013-02-27 01:34:00,40.2,40.2,29.72,North,359,5.8,13.7,100,0.01,,---,0.02,VWS V14.01,2013-02-27 06:34:00,
2013-02-27 01:39:00,39.8,39.8,29.72,East,89,14.0,17.0,100,0.01,,---,0.02,VWS V14.01,2013-02-27 06:39:00,
2013-02-27 01:44:00,39.8,39.8,29.71,North,359,1.7,22.5,100,0.01,,---,0.02,VWS V14.01,2013-02-27 06:44:00,
2013-02-27 01:49:00,40.2,40.2,29.71,North,359,0.5,6.5,100,0.01,,---,0.02,VWS V14.01,2013-02-27 06:49:00,
2013-02-27 01:54:00,40.1,40.1,29.69,East,86,0.0,15.1,100,0.01,,---,0.02,VWS V14.01,2013-02-27 06:54:00,
2013-02-27 01:59:00,40.7,40.7,29.69,North,359,20.2,22.9,100,0.01,,---,0.02,VWS V14.01,2013-02-27 06:59:00,
2013-02-27 02:04:00,40.5,40.5,29.68,North,359,0.7,11.3,100,0.01,,---,0.02,VWS V14.01,2013-02-27 07:04:00,
2013-02-27 02:09:00,39.8,39.8,29.67,North,359,0.0,0.0,100,0.02,,---,0.03,VWS V14.01,2013-02-27 07:09:00,
2013-02-27 02:14:00,40.2,40.2,29.66,North,359,0.0,5.8,100,0.02,,---,0.03,VWS V14.01,2013-02-27 07:14:00,
2013-02-27 02:19:00,40.5,40.5,29.66,SSW,194,5.5,28.9,100,0.02,,---,0.03,VWS V14.01,2013-02-27 07:19:00,
2013-02-27 02:24:00,39.9,39.9,29.65,NNE,24,0.0,23.8,100,0.01,,---,0.03,VWS V14.01,2013-02-27 07:24:00,
2013-02-27 02:29:00,40.5,40.5,29.65,North,359,0.0,0.7,100,0.01,,---,0.03,VWS V14.01,2013-02-27 07:29:00,
2013-02-27 02:34:00,40.4,40.4,29.65,North,359,2.3,16.5,100,0.01,,---,0.03,VWS V14.01,2013-02-27 07:34:00,
2013-02-27 02:39:00,41.2,41.2,29.64,North,359,18.0,24.4,100,0.01,,---,0.03,VWS V14.01,2013-02-27 07:39:00,
2013-02-27 02:44:00,40.6,40.6,29.64,SE,132,0.0,20.2,100,0.01,,---,0.03,VWS V14.01,2013-02-27 07:44:00,
2013-02-27 02:49:00,40.1,40.1,29.63,ESE,121,12.9,19.6,100,0.01,,---,0.03,VWS V14.01,2013-02-27 07:49:00,
2013-02-27 02:54:00,40.0,40.0,29.63,North,359,1.8,14.7,100,0.01,,---,0.03,VWS V14.01,2013-02-27 07:54:00,
2013-02-27 02:59:00,40.7,40.7,29.62,North,359,0.0,0.0,100,0.01,,---,0.03,VWS V14.01,2013-02-27 07:59:00,
2013-02-27 03:04:00,40.2,40.2,29.62,North,359,0.0,3.6,100,0.02,,---,0.04,VWS V14.01,2013-02-27 08:04:00,
2013-02-27 03:09:00,41.1,41.1,29.61,ESE,114,13.1,13.1,100,0.01,,---,0.04,VWS V14.01,2013-02-27 08:09:00,
2013-02-27 03:14:00,40.5,40.5,29.61,North,359,1.9,23.1,100,0.01,,---,0.04,VWS V14.01,2013-02-27 08:14:00,
2013-02-27 03:19:00,41.3,41.3,29.61,North,359,1.7,13.3,100,0.01,,---,0.04,VWS V14.01,2013-02-27 08:19:00,
2013-02-27 03:24:00,41.8,41.8,29.60,North,359,8.3,8.3,100,0.01,,---,0.04,VWS V14.01,2013-02-27 08:24:00,
2013-02-27 03:29:00,41.5,41.5,29.60,North,359,0.2,1.2,100,0.01,,---,0.04,VWS V14.01,2013-02-27 08:29:00,
2013-02-27 03:34:00,41.9,41.9,29.59,North,359,1.3,15.3,100,0.01,,---,0.04,VWS V14.01,2013-02-27 08:34:00,
2013-02-27 03:39:00,41.6,41.6,29.59,ENE,60,0.0,0.0,100,0.01,,---,0.04,VWS V14.01,2013-02-27 08:39:00,
2013-02-27 03:44:00,42.1,42.1,29.59,East,86,3.9,3.9,100,0.02,,---,0.05,VWS V14.01,2013-02-27 08:44:00,
2013-02-27 03:49:00,41.1,41.1,29.58,East,93,0.0,12.7,100,0.02,,---,0.05,VWS V14.01,2013-02-27 08:49:00,
2013-02-27 03:54:00,42.1,42.1,29.58,ENE,62,0.0,0.0,100,0.02,,---,0.05,VWS V14.01,2013-02-27 08:54:00,
2013-02-27 03:59:00,42.0,42.0,29.58,North,359,0.0,0.0,100,0.02,,---,0.05,VWS V14.01,2013-02-27 08:59:00,
2013-02-27 04:04:00,41.8,41.8,29.58,East,83,0.0,0.0,100,0.01,,---,0.05,VWS V14.01,2013-02-27 09:04:00,
2013-02-27 04:09:00,42.3,42.3,29.58,ENE,76,0.3,0.3,100,0.01,,---,0.05,VWS V14.01,2013-02-27 09:09:00,
2013-02-27 04:14:00,42.9,42.9,29.57,NE,53,21.9,21.9,100,0.01,,---,0.05,VWS V14.01,2013-02-27 09:14:00,
2013-02-27 04:19:00,43.2,43.2,29.57,East,80,7.2,7.2,100,0.01,,---,0.05,VWS V14.01,2013-02-27 09:19:00,
2013-02-27 04:24:00,42.9,42.9,29.57,North,359,0.4,0.4,100,0.01,,---,0.05,VWS V14.01,2013-02-27 09:24:00,
2013-02-27 04:29:00,43.1,43.1,29.57,ENE,75,0.0,8.8,100,0.02,,---,0.06,VWS V14.01,2013-02-27 09:29:00,
2013-02-27 04:31:00,43.2,43.2,29.52,North,359,0.0,0.0,100,0.02,,---,0.08,VWS V14.01,2013-02-27 09:31:00,
2013-02-27 04:34:00,43.1,43.1,29.57,North,359,0.0,12.3,100,0.02,,---,0.06,VWS V14.01,2013-02-27 09:34:00,
2013-02-27 04:39:00,42.8,42.8,29.57,NNW,345,0.0,0.0,100,0.02,,---,0.06,VWS V14.01,2013-02-27 09:39:00,
2013-02-27 04:44:00,43.1,43.1,29.56,ESE,118,9.0,12.2,100,0.01,,---,0.06,VWS V14.01,2013-02-27 09:44:00,
2013-02-27 04:49:00,43.1,43.1,29.56,East,93,0.0,8.4,100,0.01,,---,0.06,VWS V14.01,2013-02-27 09:49:00,
2013-02-27 04:54:00,43.1,43.1,29.56,North,359,8.9,20.0,100,0.01,,---,0.06,VWS V14.01,2013-02-27 09:54:00,
2013-02-27 04:59:00,43.1,43.1,29.55,North,359,0.0,5.1,100,0.01,,---,0.06,VWS V14.01,2013-02-27 09:59:00,
2013-02-27 05:04:00,42.7,42.7,29.55,ENE,70,15.5,18.5,100,0.02,,---,0.07,VWS V14.01,2013-02-27 10:04:00,
2013-02-27 05:09:00,43.0,43.0,29.55,ENE,70,8.8,10.0,100,0.02,,---,0.07,VWS V14.01,2013-02-27 10:09:00,
2013-02-27 05:14:00,43.1,43.1,29.54,North,359,9.1,9.6,100,0.02,,---,0.07,VWS V14.01,2013-02-27 10:14:00,
2013-02-27 05:19:00,43.1,43.1,29.54,ENE,68,10.5,14.0,100,0.02,,---,0.07,VWS V14.01,2013-02-27 10:19:00,
2013-02-27 05:24:00,42.4,42.4,29.53,NNE,15,7.3,8.5,100,0.02,,---,0.07,VWS V14.01,2013-02-27 10:24:00,
2013-02-27 05:29:00,42.7,42.7,29.53,ENE,73,0.0,5.1,100,0.01,,---,0.07,VWS V14.01,2013-02-27 10:29:00,
2013-02-27 05:34:00,43.1,43.1,29.53,North,359,0.6,0.6,100,0.01,,---,0.07,VWS V14.01,2013-02-27 10:34:00,
2013-02-27 05:39:00,42.7,42.7,29.52,North,359,9.4,9.4,100,0.01,,---,0.07,VWS V14.01,2013-02-27 10:39:00,
2013-02-27 05:44:00,43.2,43.2,29.53,North,359,0.0,0.0,100,0.02,,---,0.08,VWS V14.01,2013-02-27 10:44:00,
2013-02-27 05:49:00,43.5,43.5,29.52,North,359,0.0,0.0,100,0.02,,---,0.08,VWS V14.01,2013-02-27 10:49:00,
2013-02-27 05:54:00,42.9,42.9,29.53,North,359,0.0,1.1,100,0.02,,---,0.08,VWS V14.01,2013-02-27 10:54:00,
2013-02-27 05:59:00,43.8,43.8,29.53,East,87,0.3,0.3,100,0.02,,---,0.08,VWS V14.01,2013-02-27 10:59:00,
2013-02-27 06:04:00,42.5,42.5,29.53,North,359,0.0,0.0,100,0.01,,---,0.08,VWS V14.01,2013-02-27 11:04:00,
2013-02-27 06:09:00,43.7,43.7,29.52,ENE,70,0.0,0.0,100,0.01,,---,0.08,VWS V14.01,2013-02-27 11:09:00,
2013-02-27 06:14:00,44.2,44.2,29.52,SSE,149,6.2,9.6,100,0.01,,---,0.08,VWS V14.01,2013-02-27 11:14:00,
2013-02-27 06:19:00,43.8,43.8,29.51,North,359,0.2,0.2,100,0.02,,---,0.09,VWS V14.01,2013-02-27 11:19:00,
2013-02-27 06:24:00,44.0,44.0,29.51,ESE,110,0.0,0.0,100,0.02,,---,0.09,VWS V14.01,2013-02-27 11:24:00,
2013-02-27 06:29:00,44.0,44.0,29.51,SE,135,5.2,7.6,100,0.02,,---,0.09,VWS V14.01,2013-02-27 11:29:00,
2013-02-27 06:34:00,44.0,44.0,29.51,ESE,121,0.0,14.0,100,0.01,,---,0.09,VWS V14.01,2013-02-27 11:34:00,
2013-02-27 06:39:00,44.4,44.4,29.51,North,359,0.0,14.0,100,0.01,,---,0.09,VWS V14.01,2013-02-27 11:39:00,
2013-02-27 06:44:00,44.5,44.5,29.50,North,359,0.0,14.0,100,0.01,,---,0.09,VWS V14.01,2013-02-27 11:44:00,
2013-02-27 06:49:00,44.3,44.3,29.50,ENE,65,6.0,7.9,100,0.01,,---,0.09,VWS V14.01,2013-02-27 11:49:00,
2013-02-27 06:54:00,44.8,44.8,29.49,SE,129,0.0,0.0,100,0.02,,---,0.10,VWS V14.01,2013-02-27 11:54:00,
2013-02-27 06:59:00,45.8,45.8,29.49,East,86,11.7,14.7,100,0.02,,---,0.10,VWS V14.01,2013-02-27 11:59:00,
2013-02-27 07:04:00,45.2,45.2,29.49,North,359,0.0,0.0,100,0.02,,---,0.10,VWS V14.01,2013-02-27 12:04:00,
2013-02-27 07:09:00,45.6,45.6,29.49,North,359,0.0,6.0,100,0.02,,---,0.10,VWS V14.01,2013-02-27 12:09:00,
2013-02-27 07:14:00,45.3,45.3,29.48,North,359,0.6,0.6,100,0.02,,---,0.10,VWS V14.01,2013-02-27 12:14:00,
2013-02-27 07:19:00,45.2,45.2,29.48,ESE,118,3.5,13.3,100,0.01,,---,0.10,VWS V14.01,2013-02-27 12:19:00,
2013-02-27 07:24:00,45.4,45.4,29.48,East,86,7.0,15.0,100,0.02,,---,0.11,VWS V14.01,2013-02-27 12:24:00,
2013-02-27 07:29:00,45.5,45.5,29.48,East,86,0.0,0.0,100,0.02,,---,0.11,VWS V14.01,2013-02-27 12:29:00,
2013-02-27 07:34:00,45.4,45.4,29.48,ESE,103,4.4,17.3,100,0.02,,---,0.11,VWS V14.01,2013-02-27 12:34:00,
2013-02-27 07:39:00,46.0,46.0,29.48,North,359,0.0,0.0,100,0.02,,---,0.11,VWS V14.01,2013-02-27 12:39:00,
2013-02-27 07:44:00,45.5,45.5,29.48,North,359,0.0,0.0,100,0.02,,---,0.11,VWS V14.01,2013-02-27 12:44:00,
2013-02-27 07:49:00,45.2,45.2,29.47,ENE,59,7.5,13.3,100,0.02,,---,0.11,VWS V14.01,2013-02-27 12:49:00,
2013-02-27 07:54:00,45.9,45.9,29.47,North,359,3.8,9.8,100,0.02,,---,0.11,VWS V14.01,2013-02-27 12:54:00,
2013-02-27 07:59:00,45.7,45.7,29.47,ESE,118,5.0,16.7,100,0.02,,---,0.12,VWS V14.01,2013-02-27 12:59:00,
2013-02-27 08:04:00,45.4,45.4,29.47,East,80,18.0,18.0,100,0.02,,---,0.12,VWS V14.01,2013-02-27 13:04:00,
2013-02-27 08:09:00,45.8,45.8,29.47,North,359,0.0,0.3,100,0.02,,---,0.12,VWS V14.01,2013-02-27 13:09:00,
2013-02-27 08:14:00,45.1,45.1,29.47,SE,127,11.1,13.8,100,0.02,,---,0.12,VWS V14.01,2013-02-27 13:14:00,
2013-02-27 08:18:00,45.1,45.1,29.47,North,359,0.0,0.0,100,0.02,,---,0.12,VWS V14.01,2013-02-27 13:18:00,
2013-02-27 08:23:00,44.7,44.7,29.47,North,359,0.4,2.4,100,0.02,,---,0.12,VWS V14.01,2013-02-27 13:23:00,
2013-02-27 08:28:00,44.6,44.6,29.46,NE,56,0.7,17.0,100,0.02,,---,0.13,VWS V14.01,2013-02-27 13:28:00,
2013-02-27 08:33:00,44.1,44.1,29.46,SE,129,11.1,15.5,100,0.02,,---,0.13,VWS V14.01,2013-02-27 13:33:00,
2013-02-27 08:38:00,45.0,45.0,29.46,East,98,10.6,10.7,100,0.02,,---,0.13,VWS V14.01,2013-02-27 13:38:00,
2013-02-27 08:43:00,44.4,44.4,29.46,SSE,148,7.6,15.5,100,0.02,,---,0.13,VWS V14.01,2013-02-27 13:43:00,
2013-02-27 08:48:00,45.2,45.2,29.45,North,359,2.2,19.9,100,0.02,,---,0.13,VWS V14.01,2013-02-27 13:48:00,
2013-02-27 08:53:00,44.7,44.7,29.45,SW,215,4.3,16.4,100,0.02,,---,0.13,VWS V14.01,2013-02-27 13:53:00,
2013-02-27 08:58:00,44.8,44.8,29.45,North,359,2.1,11.1,100,0.02,,---,0.13,VWS V14.01,2013-02-27 13:58:00,
2013-02-27 09:03:00,44.6,44.6,29.45,North,359,4.8,17.5,100,0.02,,---,0.14,VWS V14.01,2013-02-27 14:03:00,
2013-02-27 09:08:00,44.7,44.7,29.44,North,359,3.4,9.7,100,0.02,,---,0.14,VWS V14.01,2013-02-27 14:08:00,
2013-02-27 09:13:00,44.8,44.8,29.44,South,170,0.0,0.4,100,0.02,,---,0.14,VWS V14.01,2013-02-27 14:13:00,
2013-02-27 09:18:00,44.9,44.9,29.45,East,86,5.1,5.8,100,0.02,,---,0.14,VWS V14.01,2013-02-27 14:18:00,
2013-02-27 09:23:00,45.6,45.6,29.46,SSE,159,4.6,10.4,100,0.02,,---,0.14,VWS V14.01,2013-02-27 14:23:00,
2013-02-27 09:28:00,45.6,45.6,29.46,ESE,120,0.0,0.0,100,0.02,,---,0.14,VWS V14.01,2013-02-27 14:28:00,
2013-02-27 09:33:00,45.7,45.7,29.46,ESE,114,1.1,9.1,100,0.01,,---,0.14,VWS V14.01,2013-02-27 14:33:00,
2013-02-27 09:38:00,45.9,45.9,29.45,North,359,0.0,9.3,100,0.02,,---,0.15,VWS V14.01,2013-02-27 14:38:00,
2013-02-27 09:43:00,45.9,45.9,29.46,ENE,66,0.9,5.3,100,0.02,,---,0.15,VWS V14.01,2013-02-27 14:43:00,
2013-02-27 09:48:00,45.9,45.9,29.46,ENE,66,0.0,1.2,100,0.02,,---,0.15,VWS V14.01,2013-02-27 14:48:00,
2013-02-27 09:53:00,46.2,46.2,29.46,SSE,167,0.0,2.6,100,0.02,,---,0.15,VWS V14.01,2013-02-27 14:53:00,
2013-02-27 09:58:00,45.6,45.6,29.46,East,84,1.4,4.6,100,0.02,,---,0.15,VWS V14.01,2013-02-27 14:58:00,
2013-02-27 10:03:00,46.0,46.0,29.45,ENE,58,4.8,5.5,100,0.02,,---,0.15,VWS V14.01,2013-02-27 15:03:00,
2013-02-27 10:08:00,46.4,46.4,29.45,South,173,2.2,5.5,100,0.01,,---,0.15,VWS V14.01,2013-02-27 15:08:00,
2013-02-27 10:13:00,45.5,45.5,29.45,East,98,3.0,6.2,100,0.02,,---,0.16,VWS V14.01,2013-02-27 15:13:00,
2013-02-27 10:18:00,46.1,46.1,29.45,SSW,211,1.2,3.9,100,0.02,,---,0.16,VWS V14.01,2013-02-27 15:18:00,
2013-02-27 10:23:00,46.8,46.8,29.45,West,260,0.0,0.0,100,0.02,,---,0.16,VWS V14.01,2013-02-27 15:23:00,
2013-02-27 10:28:00,46.7,46.7,29.45,North,7,1.9,3.0,100,0.02,,---,0.16,VWS V14.01,2013-02-27 15:28:00,
2013-02-27 10:33:00,46.6,46.6,29.45,NNE,28,2.1,2.1,100,0.02,,---,0.16,VWS V14.01,2013-02-27 15:33:00,
2013-02-27 10:38:00,47.3,47.3,29.44,North,359,0.2,7.7,100,0.01,,---,0.16,VWS V14.01,2013-02-27 15:38:00,
2013-02-27 10:43:00,47.3,47.3,29.44,NE,46,0.0,1.9,100,0.02,,---,0.17,VWS V14.01,2013-02-27 15:43:00,
2013-02-27 10:48:00,47.1,47.1,29.45,NE,46,0.0,0.0,100,0.02,,---,0.17,VWS V14.01,2013-02-27 15:48:00,
2013-02-27 10:53:00,47.7,47.7,29.44,NNE,28,0.0,1.4,100,0.02,,---,0.17,VWS V14.01,2013-02-27 15:53:00,
2013-02-27 10:58:00,47.5,47.5,29.45,NNE,28,0.0,0.0,100,0.02,,---,0.17,VWS V14.01,2013-02-27 15:58:00,
2013-02-27 11:03:00,48.2,48.2,29.44,NNE,28,0.0,0.0,100,0.02,,---,0.17,VWS V14.01,2013-02-27 16:03:00,
2013-02-27 11:08:00,48.2,48.2,29.44,NNE,28,0.0,0.0,100,0.02,,---,0.17,VWS V14.01,2013-02-27 16:08:00,
2013-02-27 11:13:00,48.4,48.4,29.45,NW,323,0.0,0.0,100,0.01,,---,0.17,VWS V14.01,2013-02-27 16:13:00,
2013-02-27 11:18:00,48.9,48.9,29.45,NW,323,0.0,0.0,100,0.02,,---,0.18,VWS V14.01,2013-02-27 16:18:00,
2013-02-27 11:23:00,49.0,49.0,29.45,NW,323,0.0,0.0,100,0.02,,---,0.18,VWS V14.01,2013-02-27 16:23:00,
2013-02-27 11:28:00,48.5,48.5,29.45,WSW,242,0.0,0.0,100,0.02,,---,0.18,VWS V14.01,2013-02-27 16:28:00,
2013-02-27 11:33:00,48.9,48.9,29.45,WSW,242,0.0,0.0,100,0.02,,---,0.18,VWS V14.01,2013-02-27 16:33:00,
2013-02-27 11:38:00,49.2,49.2,29.45,WSW,242,0.0,0.0,100,0.02,,---,0.18,VWS V14.01,2013-02-27 16:38:00,
2013-02-27 11:43:00,49.0,49.0,29.45,WSW,253,2.3,4.7,100,0.02,,---,0.19,VWS V14.01,2013-02-27 16:43:00,
2013-02-27 11:48:00,49.1,49.1,29.45,WNW,297,3.1,3.5,100,0.02,,---,0.19,VWS V14.01,2013-02-27 16:48:00,
2013-02-27 11:53:00,49.4,49.4,29.44,North,359,0.0,7.0,100,0.02,,---,0.19,VWS V14.01,2013-02-27 16:53:00,
2013-02-27 11:58:00,49.0,49.0,29.44,NNW,335,4.7,5.2,100,0.02,,---,0.19,VWS V14.01,2013-02-27 16:58:00,
2013-02-27 12:03:00,49.4,49.4,29.43,NNW,329,2.7,5.2,100,0.02,,---,0.19,VWS V14.01,2013-02-27 17:03:00,
2013-02-27 12:08:00,48.9,48.9,29.43,North,359,0.0,5.0,100,0.03,,---,0.20,VWS V14.01,2013-02-27 17:08:00,
2013-02-27 12:13:00,49.5,49.5,29.43,SW,233,0.0,4.4,100,0.03,,---,0.20,VWS V14.01,2013-02-27 17:13:00,
2013-02-27 12:18:00,49.5,49.5,29.43,West,269,0.0,0.5,100,0.02,,---,0.20,VWS V14.01,2013-02-27 17:18:00,
2013-02-27 12:23:00,50.0,50.0,29.43,WNW,301,0.2,6.2,100,0.03,,---,0.21,VWS V14.01,2013-02-27 17:23:00,
2013-02-27 12:28:00,49.6,49.6,29.43,North,359,3.9,3.9,100,0.03,,---,0.21,VWS V14.01,2013-02-27 17:28:00,
2013-02-27 12:33:00,49.4,49.4,29.43,West,273,6.0,7.1,100,0.03,,---,0.21,VWS V14.01,2013-02-27 17:33:00,
2013-02-27 12:38:00,49.6,49.6,29.44,ENE,70,1.8,12.7,100,0.03,,---,0.21,VWS V14.01,2013-02-27 17:38:00,
2013-02-27 12:43:00,50.3,50.3,29.44,North,359,1.5,4.5,100,0.03,,---,0.22,VWS V14.01,2013-02-27 17:43:00,
2013-02-27 12:48:00,49.5,49.5,29.44,North,359,0.0,1.2,100,0.03,,---,0.22,VWS V14.01,2013-02-27 17:48:00,
2013-02-27 12:53:00,50.0,50.0,29.44,North,359,0.3,0.3,100,0.03,,---,0.22,VWS V14.01,2013-02-27 17:53:00,
2013-02-27 12:58:00,49.8,49.6,29.44,North,0,0.0,0.4,99,0.03,,---,0.22,VWS V14.01,2013-02-27 17:58:00,
2013-02-27 13:03:00,49.4,48.9,29.44,WNW,297,11.8,12.5,98,0.04,,---,0.23,VWS V14.01,2013-02-27 18:03:00,
2013-02-27 13:08:00,49.8,49.1,29.45,North,359,5.8,14.2,97,0.03,,---,0.23,VWS V14.01,2013-02-27 18:08:00,
2013-02-27 13:13:00,49.7,49.0,29.45,North,359,0.0,0.0,97,0.03,,---,0.23,VWS V14.01,2013-02-27 18:13:00,
2013-02-27 13:18:00,49.7,48.5,29.45,North,359,0.0,0.0,96,0.03,,---,0.23,VWS V14.01,2013-02-27 18:18:00,
2013-02-27 13:23:00,49.2,47.3,29.45,North,359,0.0,0.2,93,0.02,,---,0.23,VWS V14.01,2013-02-27 18:23:00,
2013-02-27 13:28:00,49.6,47.3,29.45,West,267,9.0,13.0,92,0.03,,---,0.24,VWS V14.01,2013-02-27 18:28:00,
2013-02-27 13:33:00,48.9,47.0,29.46,North,359,0.0,0.0,93,0.03,,---,0.24,VWS V14.01,2013-02-27 18:33:00,
2013-02-27 13:38:00,49.2,47.3,29.45,North,359,0.0,0.0,93,0.03,,---,0.24,VWS V14.01,2013-02-27 18:38:00,
2013-02-27 13:43:00,49.1,47.7,29.46,West,267,0.0,0.0,95,0.03,,---,0.24,VWS V14.01,2013-02-27 18:43:00,
2013-02-27 13:48:00,48.5,47.2,29.46,North,359,0.0,0.0,95,0.02,,---,0.24,VWS V14.01,2013-02-27 18:48:00,
2013-02-27 13:53:00,48.7,47.5,29.46,North,359,0.0,0.2,96,0.03,,---,0.25,VWS V14.01,2013-02-27 18:53:00,
2013-02-27 13:58:00,48.7,47.5,29.46,NW,316,9.1,10.1,95,0.03,,---,0.25,VWS V14.01,2013-02-27 18:58:00,
2013-02-27 14:03:00,48.8,46.6,29.46,NNE,31,2.1,18.5,92,0.03,,---,0.25,VWS V14.01,2013-02-27 19:03:00,
2013-02-27 14:08:00,48.5,46.1,29.47,North,359,0.0,0.0,92,0.02,,---,0.25,VWS V14.01,2013-02-27 19:08:00,
2013-02-27 14:13:00,48.6,45.6,29.47,North,359,0.0,1.9,89,0.02,,---,0.25,VWS V14.01,2013-02-27 19:13:00,
2013-02-27 14:18:00,49.2,45.0,29.47,NW,314,0.0,0.8,85,0.02,,---,0.25,VWS V14.01,2013-02-27 19:18:00,
2013-02-27 14:23:00,48.3,44.2,29.48,North,359,1.0,18.1,86,0.03,,---,0.26,VWS V14.01,2013-02-27 19:23:00,
2013-02-27 14:28:00,49.2,45.3,29.48,North,354,5.5,8.0,86,0.03,,---,0.26,VWS V14.01,2013-02-27 19:28:00,
2013-02-27 14:33:00,48.9,44.5,29.48,North,359,8.5,8.5,85,0.02,,---,0.26,VWS V14.01,2013-02-27 19:33:00,
2013-02-27 14:38:00,49.1,44.9,29.48,North,359,0.6,6.8,85,0.02,,---,0.26,VWS V14.01,2013-02-27 19:38:00,
2013-02-27 14:43:00,49.4,44.6,29.48,North,359,0.0,0.0,84,0.02,,---,0.26,VWS V14.01,2013-02-27 19:43:00,
2013-02-27 14:48:00,49.3,44.2,29.48,North,359,0.0,13.2,82,0.03,,---,0.27,VWS V14.01,2013-02-27 19:48:00,
2013-02-27 14:53:00,49.4,44.0,29.48,North,359,0.0,0.0,82,0.02,,---,0.27,VWS V14.01,2013-02-27 19:53:00,
2013-02-27 14:58:00,50.2,43.1,29.48,WNW,287,12.1,12.7,76,0.02,,---,0.27,VWS V14.01,2013-02-27 19:58:00,
2013-02-27 15:03:00,50.3,41.8,29.48,North,359,1.5,19.8,72,0.02,,---,0.27,VWS V14.01,2013-02-27 20:03:00,
2013-02-27 15:08:00,50.9,42.5,29.49,North,359,0.0,0.7,73,0.02,,---,0.27,VWS V14.01,2013-02-27 20:08:00,
2013-02-27 15:13:00,50.3,41.2,29.49,North,359,3.5,6.8,71,0.02,,---,0.27,VWS V14.01,2013-02-27 20:13:00,
2013-02-27 15:18:00,49.7,40.4,29.50,North,359,0.0,0.7,70,0.03,,---,0.28,VWS V14.01,2013-02-27 20:18:00,
2013-02-27 15:23:00,48.9,39.2,29.50,West,260,11.8,17.7,69,0.02,,---,0.28,VWS V14.01,2013-02-27 20:23:00,
2013-02-27 15:28:00,49.9,40.3,29.50,North,359,0.5,5.8,69,0.02,,---,0.28,VWS V14.01,2013-02-27 20:28:00,
2013-02-27 15:33:00,49.5,39.5,29.51,North,359,1.2,3.2,68,0.02,,---,0.28,VWS V14.01,2013-02-27 20:33:00,
2013-02-27 15:38:00,49.3,39.2,29.51,North,359,0.0,9.7,68,0.02,,---,0.28,VWS V14.01,2013-02-27 20:38:00,
2013-02-27 15:43:00,49.9,39.8,29.51,North,359,8.6,8.6,68,0.02,,---,0.28,VWS V14.01,2013-02-27 20:43:00,
2013-02-27 15:48:00,50.1,39.9,29.51,North,359,0.2,0.2,68,0.02,,---,0.29,VWS V14.01,2013-02-27 20:48:00,
2013-02-27 15:53:00,49.6,39.5,29.51,NNE,28,14.5,18.4,68,0.02,,---,0.29,VWS V14.01,2013-02-27 20:53:00,
2013-02-27 15:58:00,49.4,39.4,29.52,NNE,15,6.8,12.0,68,0.02,,---,0.29,VWS V14.01,2013-02-27 20:58:00,
2013-02-27 16:03:00,49.3,39.1,29.52,North,359,17.2,17.2,68,0.02,,---,0.29,VWS V14.01,2013-02-27 21:03:00,
2013-02-27 16:08:00,48.9,38.4,29.52,North,359,2.3,3.6,67,0.02,,---,0.29,VWS V14.01,2013-02-27 21:08:00,
2013-02-27 16:13:00,49.1,38.5,29.52,NW,315,13.5,20.5,67,0.02,,---,0.29,VWS V14.01,2013-02-27 21:13:00,
2013-02-27 16:18:00,48.5,38.2,29.53,NNE,18,17.3,17.8,68,0.01,,---,0.29,VWS V14.01,2013-02-27 21:18:00,
2013-02-27 16:23:00,47.7,37.5,29.53,WNW,283,18.5,25.0,68,0.02,,---,0.30,VWS V14.01,2013-02-27 21:23:00,
2013-02-27 16:28:00,47.9,36.7,29.53,WNW,287,7.0,17.2,65,0.02,,---,0.30,VWS V14.01,2013-02-27 21:28:00,
2013-02-27 16:33:00,47.5,36.8,29.53,North,359,12.1,13.3,66,0.02,,---,0.30,VWS V14.01,2013-02-27 21:33:00,
2013-02-27 16:38:00,48.1,37.5,29.54,NNE,28,9.9,11.7,66,0.02,,---,0.30,VWS V14.01,2013-02-27 21:38:00,
2013-02-27 16:43:00,47.4,36.9,29.54,NNW,329,20.4,20.4,67,0.02,,---,0.30,VWS V14.01,2013-02-27 21:43:00,
2013-02-27 16:48:00,47.4,36.7,29.54,North,359,6.6,15.8,66,0.01,,---,0.30,VWS V14.01,2013-02-27 21:48:00,
2013-02-27 16:53:00,47.3,36.6,29.54,North,359,1.1,4.6,66,0.02,,---,0.30,VWS V14.01,2013-02-27 21:53:00,
2013-02-27 16:58:00,47.0,36.6,29.54,North,359,1.4,9.4,67,0.02,,---,0.31,VWS V14.01,2013-02-27 21:58:00,
2013-02-27 17:03:00,47.4,37.3,29.55,NW,311,9.5,9.5,68,0.02,,---,0.31,VWS V14.01,2013-02-27 22:03:00,
2013-02-27 17:08:00,46.9,37.0,29.55,North,359,2.5,2.5,68,0.02,,---,0.31,VWS V14.01,2013-02-27 22:08:00,
2013-02-27 17:13:00,46.7,36.9,29.55,North,359,0.0,0.0,68,0.02,,---,0.31,VWS V14.01,2013-02-27 22:13:00,
2013-02-27 17:18:00,46.8,37.2,29.55,NNW,333,6.8,7.0,69,0.02,,---,0.31,VWS V14.01,2013-02-27 22:18:00,
2013-02-27 17:23:00,46.5,36.9,29.55,SSW,193,14.5,15.1,69,0.01,,---,0.31,VWS V14.01,2013-02-27 22:23:00,
2013-02-27 17:28:00,46.9,37.2,29.55,North,359,0.0,0.0,69,0.01,,---,0.31,VWS V14.01,2013-02-27 22:28:00,
2013-02-27 17:33:00,46.8,37.1,29.56,North,359,0.0,0.0,69,0.01,,---,0.31,VWS V14.01,2013-02-27 22:33:00,
2013-02-27 17:38:00,46.9,37.3,29.56,North,359,0.0,0.0,69,0.02,,---,0.32,VWS V14.01,2013-02-27 22:38:00,
2013-02-27 17:43:00,46.5,37.0,29.56,North,359,0.0,0.0,69,0.02,,---,0.32,VWS V14.01,2013-02-27 22:43:00,
2013-02-27 17:48:00,47.1,37.5,29.56,NNW,346,0.0,2.7,69,0.02,,---,0.32,VWS V14.01,2013-02-27 22:48:00,
2013-02-27 17:53:00,46.6,37.0,29.57,NE,37,5.0,5.0,69,0.02,,---,0.32,VWS V14.01,2013-02-27 22:53:00,
2013-02-27 17:58:00,47.0,37.4,29.57,North,359,6.2,6.2,69,0.01,,---,0.32,VWS V14.01,2013-02-27 22:58:00,
2013-02-27 18:03:00,46.7,37.0,29.57,North,359,5.0,5.0,69,0.01,,---,0.32,VWS V14.01,2013-02-27 23:03:00,
2013-02-27 18:08:00,46.4,36.8,29.57,North,359,6.6,6.6,69,0.01,,---,0.32,VWS V14.01,2013-02-27 23:08:00,
2013-02-27 18:13:00,45.8,36.2,29.57,North,359,5.8,5.8,69,0.02,,---,0.33,VWS V14.01,2013-02-27 23:13:00,
2013-02-27 18:18:00,46.8,37.2,29.57,North,359,0.0,0.0,69,0.02,,---,0.33,VWS V14.01,2013-02-27 23:18:00,
2013-02-27 18:23:00,46.3,36.7,29.58,North,359,0.0,0.0,69,0.02,,---,0.33,VWS V14.01,2013-02-27 23:23:00,
2013-02-27 18:28:00,46.1,36.6,29.58,North,359,0.7,9.6,69,0.02,,---,0.33,VWS V14.01,2013-02-27 23:28:00,
2013-02-27 18:33:00,46.2,36.7,29.58,North,353,4.3,4.3,69,0.02,,---,0.33,VWS V14.01,2013-02-27 23:33:00,
2013-02-27 18:38:00,46.8,37.3,29.58,North,1,6.4,9.6,69,0.01,,---,0.33,VWS V14.01,2013-02-27 23:38:00,
2013-02-27 18:43:00,46.8,37.3,29.58,NNE,25,0.0,0.0,69,0.01,,---,0.33,VWS V14.01,2013-02-27 23:43:00,
2013-02-27 18:48:00,46.2,36.8,29.58,North,359,0.0,0.0,70,0.01,,---,0.33,VWS V14.01,2013-02-27 23:48:00,
2013-02-27 18:53:00,46.1,36.8,29.58,NNW,332,0.0,0.0,70,0.01,,---,0.33,VWS V14.01,2013-02-27 23:53:00,
2013-02-27 18:58:00,46.1,36.9,29.58,North,359,0.0,4.8,70,0.02,,---,0.34,VWS V14.01,2013-02-27 23:58:00,
2013-02-27 19:03:00,45.9,36.8,29.58,NW,321,5.5,7.6,70,0.02,,---,0.34,VWS V14.01,2013-02-28 00:03:00,
2013-02-27 19:08:00,46.1,37.0,29.58,WNW,287,4.3,5.0,70,0.02,,---,0.34,VWS V14.01,2013-02-28 00:08:00,
2013-02-27 19:13:00,45.6,36.6,29.59,NW,319,4.2,4.2,71,0.01,,---,0.34,VWS V14.01,2013-02-28 00:13:00,
2013-02-27 19:18:00,45.8,37.0,29.59,WNW,301,4.0,4.0,71,0.01,,---,0.34,VWS V14.01,2013-02-28 00:18:00,
2013-02-27 19:23:00,46.0,37.2,29.59,NNE,25,1.7,5.5,71,0.01,,---,0.34,VWS V14.01,2013-02-28 00:23:00,
2013-02-27 19:28:00,45.3,36.7,29.59,North,359,3.2,6.7,72,0.01,,---,0.34,VWS V14.01,2013-02-28 00:28:00,
2013-02-27 19:33:00,45.4,36.9,29.59,West,276,0.0,0.0,72,0.02,,---,0.35,VWS V14.01,2013-02-28 00:33:00,
2013-02-27 19:38:00,45.4,37.0,29.59,NNW,333,0.0,2.7,72,0.02,,---,0.35,VWS V14.01,2013-02-28 00:38:00,
2013-02-27 19:43:00,45.2,36.8,29.59,WNW,294,0.0,0.0,72,0.02,,---,0.35,VWS V14.01,2013-02-28 00:43:00,
2013-02-27 19:48:00,45.4,37.1,29.58,ESE,112,2.1,2.2,73,0.02,,---,0.35,VWS V14.01,2013-02-28 00:48:00,
2013-02-27 19:52:00,45.4,37.3,29.59,NNW,345,2.1,2.5,73,0.02,,---,0.35,VWS V14.01,2013-02-28 00:52:00,
2013-02-27 19:57:00,44.9,36.8,29.59,NE,49,0.0,1.9,73,0.01,,---,0.35,VWS V14.01,2013-02-28 00:57:00,
2013-02-27 20:02:00,44.9,36.9,29.59,NE,44,2.8,3.1,73,0.01,,---,0.35,VWS V14.01,2013-02-28 01:02:00,
2013-02-27 20:07:00,44.7,37.0,29.59,NW,322,1.7,2.1,74,0.01,,---,0.35,VWS V14.01,2013-02-28 01:07:00,
2013-02-27 20:12:00,44.4,36.8,29.60,NNW,333,1.1,1.4,75,0.01,,---,0.35,VWS V14.01,2013-02-28 01:12:00,
2013-02-27 20:17:00,43.8,36.4,29.60,NNW,335,1.9,1.9,75,0.01,,---,0.35,VWS V14.01,2013-02-28 01:17:00,
2013-02-27 20:22:00,43.7,36.4,29.60,NW,326,1.3,1.4,75,0.02,,---,0.36,VWS V14.01,2013-02-28 01:22:00,
2013-02-27 20:27:00,44.0,36.8,29.60,NE,56,1.7,2.2,76,0.02,,---,0.36,VWS V14.01,2013-02-28 01:27:00,
2013-02-27 20:32:00,44.1,37.0,29.60,NNE,28,1.2,1.3,76,0.02,,---,0.36,VWS V14.01,2013-02-28 01:32:00,
2013-02-27 20:37:00,43.5,36.5,29.60,North,7,1.1,1.3,76,0.01,,---,0.36,VWS V14.01,2013-02-28 01:37:00,
2013-02-27 20:42:00,43.5,36.7,29.61,NE,49,2.1,2.2,77,0.01,,---,0.36,VWS V14.01,2013-02-28 01:42:00,
2013-02-27 20:47:00,44.0,37.3,29.61,NNW,346,1.4,1.8,77,0.01,,---,0.36,VWS V14.01,2013-02-28 01:47:00,
2013-02-27 20:52:00,43.5,36.9,29.61,East,101,0.6,1.4,78,38.55,,---,0.36,VWS V14.01,2013-02-28 01:52:00,
2013-02-27 20:57:00,43.2,36.7,29.61,NNE,20,0.0,0.0,78,0.01,,---,0.36,VWS V14.01,2013-02-28 01:57:00,
2013-02-27 21:02:00,42.8,36.4,29.61,NNE,20,0.0,0.0,78,0.02,,---,0.37,VWS V14.01,2013-02-28 02:02:00,
2013-02-27 21:07:00,43.4,37.0,29.61,NNE,20,0.0,0.0,78,0.02,,---,0.37,VWS V14.01,2013-02-28 02:07:00,
2013-02-27 21:12:00,43.5,37.2,29.61,NNE,20,0.0,0.0,78,0.02,,---,0.37,VWS V14.01,2013-02-28 02:12:00,
2013-02-27 21:17:00,43.0,36.8,29.61,NNE,20,0.0,0.0,78,0.02,,---,0.37,VWS V14.01,2013-02-28 02:17:00,
2013-02-27 21:22:00,43.8,37.6,29.61,NNE,21,1.5,1.5,78,0.01,,---,0.37,VWS V14.01,2013-02-28 02:22:00,
2013-02-27 21:27:00,43.6,37.4,29.61,North,357,2.1,2.4,79,0.01,,---,0.37,VWS V14.01,2013-02-28 02:27:00,
2013-02-27 21:32:00,43.4,37.1,29.61,NNW,340,0.0,0.0,78,0.01,,---,0.37,VWS V14.01,2013-02-28 02:32:00,
2013-02-27 21:37:00,43.4,37.1,29.61,NNW,340,0.0,0.0,78,0.01,,---,0.37,VWS V14.01,2013-02-28 02:37:00,
2013-02-27 21:42:00,43.6,37.4,29.61,NNW,340,0.0,0.0,78,0.01,,---,0.37,VWS V14.01,2013-02-28 02:42:00,
2013-02-27 21:47:00,43.3,37.1,29.61,NNW,340,0.0,0.0,78,0.01,,---,0.37,VWS V14.01,2013-02-28 02:47:00,
2013-02-27 21:52:00,43.1,37.0,29.61,NNW,340,0.0,0.0,79,0.02,,---,0.38,VWS V14.01,2013-02-28 02:52:00,
2013-02-27 21:57:00,43.6,37.5,29.61,NNW,340,0.0,0.0,79,0.02,,---,0.38,VWS V14.01,2013-02-28 02:57:00,
2013-02-27 22:02:00,43.2,37.3,29.61,NNW,340,0.0,0.0,79,0.01,,---,0.38,VWS V14.01,2013-02-28 03:02:00,
2013-02-27 22:07:00,42.5,36.6,29.61,NNW,340,0.0,0.0,80,0.01,,---,0.38,VWS V14.01,2013-02-28 03:07:00,
2013-02-27 22:12:00,43.0,37.1,29.61,NNW,340,0.0,0.0,80,0.01,,---,0.38,VWS V14.01,2013-02-28 03:12:00,
2013-02-27 22:17:00,43.2,37.5,29.60,NNW,340,0.0,0.0,80,0.01,,---,0.38,VWS V14.01,2013-02-28 03:17:00,
2013-02-27 22:22:00,42.7,36.9,29.60,NNW,340,0.0,0.0,80,0.01,,---,0.38,VWS V14.01,2013-02-28 03:22:00,
2013-02-27 22:27:00,43.1,37.4,29.60,NNW,340,0.0,0.0,80,0.00,,---,0.38,VWS V14.01,2013-02-28 03:27:00,
2013-02-27 22:32:00,42.9,37.3,29.61,NNW,340,0.0,0.0,80,0.01,,---,0.38,VWS V14.01,2013-02-28 03:32:00,
2013-02-27 22:37:00,42.6,37.1,29.60,NNW,340,0.0,0.0,81,0.02,,---,0.39,VWS V14.01,2013-02-28 03:37:00,
2013-02-27 22:42:00,42.4,36.9,29.60,NNW,340,0.0,0.0,81,0.02,,---,0.39,VWS V14.01,2013-02-28 03:42:00,
2013-02-27 22:47:00,42.6,37.2,29.60,NNW,340,0.0,0.0,81,0.02,,---,0.39,VWS V14.01,2013-02-28 03:47:00,
2013-02-27 22:52:00,42.3,36.9,29.60,NNW,340,0.0,0.0,81,0.01,,---,0.39,VWS V14.01,2013-02-28 03:52:00,
2013-02-27 22:57:00,42.7,37.3,29.60,NNW,340,0.0,0.0,81,0.01,,---,0.39,VWS V14.01,2013-02-28 03:57:00,
2013-02-27 23:02:00,42.5,37.2,29.60,NNW,328,2.1,2.1,81,0.01,,---,0.39,VWS V14.01,2013-02-28 04:02:00,
2013-02-27 23:07:00,42.5,37.3,29.60,NW,326,2.2,2.2,82,0.01,,---,0.39,VWS V14.01,2013-02-28 04:07:00,
2013-02-27 23:12:00,42.2,37.2,29.59,NNW,335,1.6,1.7,82,0.01,,---,0.39,VWS V14.01,2013-02-28 04:12:00,
2013-02-27 23:17:00,42.5,37.4,29.59,NNW,330,0.0,0.0,82,0.01,,---,0.39,VWS V14.01,2013-02-28 04:17:00,
2013-02-27 23:22:00,42.5,37.4,29.58,NNW,330,0.0,0.0,82,0.01,,---,0.39,VWS V14.01,2013-02-28 04:22:00,
2013-02-27 23:27:00,42.9,37.8,29.58,NNW,330,0.0,0.0,82,0.02,,---,0.40,VWS V14.01,2013-02-28 04:27:00,
2013-02-27 23:32:00,42.4,37.3,29.58,NNW,330,0.0,0.0,82,0.02,,---,0.40,VWS V14.01,2013-02-28 04:32:00,
2013-02-27 23:37:00,42.0,37.1,29.58,NNW,330,0.0,0.0,83,0.01,,---,0.40,VWS V14.01,2013-02-28 04:37:00,
2013-02-27 23:42:00,42.0,37.1,29.58,NNW,330,0.0,0.0,83,0.01,,---,0.40,VWS V14.01,2013-02-28 04:42:00,
2013-02-27 23:47:00,42.5,37.6,29.58,NNW,330,0.0,0.0,83,0.01,,---,0.40,VWS V14.01,2013-02-28 04:47:00,
2013-02-27 23:52:00,42.2,37.4,29.58,NNW,330,0.0,0.0,83,0.01,,---,0.40,VWS V14.01,2013-02-28 04:52:00,
2013-02-27 23:57:00,42.4,37.6,29.57,NNW,330,0.0,0.0,83,0.01,,---,0.40,VWS V14.01,2013-02-28 04:57:00,